CFV2 weather

Beiseker Airport
Beiseker, Alberta, Canada

Public forecast

Using degrees Celsius for public forecast. Weather courtesy of forecast.io.

Closest aviation weather report (METAR) to Beiseker Airport

Closest report is Calgary International Airport, 26.6 nm (49.2 km) SW. Retrieved 2020/04/06 08:25 UTC (29 minutes ago):

CYYC 060825Z 01007KT 2SM -SG BR OVC005 M06/M07 A2961 RMK ST8 SLP085

Closest aviation forecast (TAF) to Beiseker Airport

Closest forecast is Calgary International Airport, 26.6 nm (49.2 km) SW. Retrieved 2020/04/06 09:40 UTC (0 seconds ago):

TAF CYYC 060838Z 0609/0706 01006KT 1SM -SG BR OVC004 TEMPO 0609/0613 4SM -SN BR OVC008 PROB30 0609/0613 1/2SM FZFG VV001 FM061300 35008KT P6SM SCT008 BKN030 TEMPO 0613/0616 5SM -SN BKN008 OVC020 FM061600 35012KT P6SM SCT020 FM062000 18010KT P6SM SKC FM070300 25012KT P6SM FEW080 RMK NXT FCST BY 061200Z